Latest METARs, TAFs and NOTAMs for TIST


---------------------------------------------------------------------------
	(OBSERVATIONS)
TIST 230753Z AUTO 09006KT 10SM FEW033 27/24 A2988 RMK AO2  SLP118
    T02670239=
TIST 230653Z AUTO 08005KT 10SM CLR 27/23 A2988 RMK AO2 SLP118
     T02670233=
TIST 230553Z AUTO 07004KT 10SM CLR 27/23 A2989 RMK AO2 SLP124
     T02720233 10283 20272 58011=
---------------------------------------------------------------------------
	(TERMINAL AREA FORECAST)
TIST 230520Z 2306/2406 08010KT P6SM VCSH FEW025 SCT040
    FM231400 12012KT P6SM VCSH FEW022 SCT035
    FM232300 07007KT P6SM VCSH SCT030=
---------------------------------------------------------------------------
	(NOTAMS)


TIST 06/020 NAV ILS RWY 10 GP U/S. 30 JUN 17:02 2018 UNTIL 30
    DEC 17:00 2018. CREATED: 30 JUN 17:02 2018

TIST 08/003 RWY 10/28 CLSD EXC EMERG 1HR PPR 340-201-2598 DLY
    0200-0900. 02 AUG 02:00 2018 UNTIL 30 SEP 09:00 2018. CREATED:
    01 AUG 21:56 2018

TIST 08/012 OBST TOWER LGT (ASR 1244135) 182120.80N0645651.50W
    (2.0NM NE STT) 1718.2FT (255.9FT AGL) OUT OF SERVICE. 14
    AUG 16:58 2018 UNTIL 14 FEB 23:59 2019. CREATED: 14 AUG 16:58
    2018

TIST 08/025 NAV ILS RWY 10 LOC/GP/DME U/S. 31 AUG 19:55 2018
    UNTIL 15 JAN 20:00 2019 ESTIMATED. CREATED: 31 AUG 19:55
    2018

TIST 09/003 OBST TOWER LGT (ASR 1271367) 182032.50N0645738.20W
    (0.8NM ENE STT) 386.2FT (60.0FT AGL) OUT OF SERVICE. 05 SEP
    15:09 2018 UNTIL 22 DEC 23:59 2018. CREATED: 05 SEP 15:09
    2018

TIST 09/014 OBST TOWER LGT (ASR 1229348) 182115.20N0645638.60W
    (2.1NM ENE STT) 1669.3FT (199.1FT AGL) OUT OF SERVICE. 13
    SEP 01:40 2018 UNTIL 28 SEP 00:40 2018. CREATED: 13 SEP 01:39
    2018

TIST 09/019 OBST TOWER LGT (ASR 1234386) 182124.80N0645811.90W
    (1.2NM NE STT) 1732.0FT (250.0FT AGL) OUT OF SERVICE. 17
    SEP 04:39 2018 UNTIL 02 OCT 03:39 2018. CREATED: 17 SEP 04:38
    2018

TIST 09/024 SVC PCL RWY 10 PAPI OUT OF SERVICE. 19 SEP 17:11
    2018 UNTIL 19 OCT 20:00 2018 ESTIMATED. CREATED: 19 SEP 17:11
    2018

TIST 09/025 OBST TOWER LGT (ASR 1288906) 182124.60N0645816.70W
    (1.2NM NE STT) 1704.1FT (180.1FT AGL) OUT OF SERVICE. 22
    SEP 05:50 2018 UNTIL 06 OCT 13:00 2018. CREATED: 22 SEP 05:50
    2018

TIST 09/026 OBST TOWER LGT (ASR 1220825) 182040.30N0645517.20W
    (3.1NM E STT) 553.8FT (113.8FT AGL) OUT OF SERVICE. 23 SEP
    06:22 2018 UNTIL 08 OCT 05:22 2018. CREATED: 23 SEP 06:21
    2018

TIST A0183/18 ILS RWY 10 GP U/S. 30 JUN 17:02 2018 UNTIL 30 DEC
    17:00 2018. CREATED: 30 JUN 17:02 2018

TIST A0228/18 RWY 10/28 CLSD EXC EMERGENCY 1HR PPR 340-201-2598.
    DLY 0200-0900, 02 AUG 02:00 2018 UNTIL 30 SEP 09:00 2018.
    CREATED: 01 AUG 22:04 2018

TIST A0258/18 RWY 10 ILS LOC/GP/DME U/S. 31 AUG 19:55 2018 UNTIL
    15 JAN 20:00 2019 ESTIMATED. CREATED: 31 AUG 19:55 2018

TIST A0271/18 OBST TOWER LGT 182115.20N0645638.60W (2.1NM ENE
    STT) 1669.3FT (199.1FT AGL) U/S. 13 SEP 01:40 2018 UNTIL
    28 SEP 00:40 2018. CREATED: 13 SEP 01:50 2018

TIST A0288/18 PCL RWY 10 PAPI U/S. 19 SEP 17:11 2018 UNTIL 19
    OCT 20:00 2018 ESTIMATED. CREATED: 19 SEP 17:20 2018

---------------------------------------------------------------------------